^^
Station Historical Data
Daily Summary for March 26, 2017 Units:  English    Metric   Both
« Previous Day
Next Day »
Daily Weekly Monthly Yearly Custom
  High: Low: Average:
Temperature: 43.1 °F 38.3 °F 40 °F
Dew Point: 38.3 °F 34.3 °F 35.9 °F
Humidity: 94 % 78 % 85 %
Wind Speed: 8.8 mph 0.0 mph 2.7 mph
Wind Gust: 13.8 mph - -
Wind:- - ENE
Pressure: 30.44 in 30.28 in -
Precipitation: 0.01 in    
Historical Graphs
 
 
Tabular Data for March 26, 2017
Time Temperature Dew Point Pressure Wind Wind Speed Wind Gust Humidity Rainfall Rate (Hourly) solar Conditions
00:03 43.1 °F 38.3 °F 30.36 in North 5.9 mph 11.5 mph 83 % 0.00 in 0.0 W/m2 CLR
00:08 43.0 °F 37.9 °F 30.36 in NNE 7.2 mph 11.5 mph 82 % 0.00 in 0.0 W/m2 CLR
00:11 42.8 °F 37.7 °F 30.36 in NE 3.3 mph 8.1 mph 82 % 0.00 in 0.0 W/m2 CLR
00:16 42.6 °F 37.5 °F 30.35 in NNE 5.5 mph 9.2 mph 82 % 0.00 in 0.0 W/m2 CLR
00:21 42.4 °F 37.3 °F 30.36 in NNE 8.8 mph 10.4 mph 82 % 0.00 in 0.0 W/m2 CLR
00:26 42.3 °F 37.2 °F 30.37 in NE 8.5 mph 11.0 mph 82 % 0.00 in 0.0 W/m2 CLR
00:31 42.2 °F 37.1 °F 30.36 in NNE 7.4 mph 13.8 mph 82 % 0.00 in 0.0 W/m2 CLR
00:36 42.1 °F 37.3 °F 30.36 in NNE 3.7 mph 9.2 mph 83 % 0.00 in 0.0 W/m2 CLR
00:41 42.0 °F 37.2 °F 30.36 in NE 2.5 mph 6.9 mph 83 % 0.00 in 0.0 W/m2 CLR
00:46 42.0 °F 37.2 °F 30.36 in ENE 5.0 mph 9.2 mph 83 % 0.00 in 0.0 W/m2 CLR
00:51 42.0 °F 37.2 °F 30.36 in NE 6.9 mph 11.5 mph 83 % 0.00 in 0.0 W/m2 CLR
00:56 41.9 °F 37.1 °F 30.36 in NE 1.9 mph 3.5 mph 83 % 0.00 in 0.0 W/m2 CLR
01:02 42.0 °F 37.2 °F 30.36 in NE 7.2 mph 11.5 mph 83 % 0.00 in 0.0 W/m2 CLR
01:07 42.0 °F 37.2 °F 30.36 in NNE 6.7 mph 10.4 mph 83 % 0.00 in 0.0 W/m2 CLR
01:08 42.0 °F 37.2 °F 30.36 in NNE 5.2 mph 9.2 mph 83 % 0.00 in 0.0 W/m2 CLR
01:13 42.0 °F 37.2 °F 30.36 in NE 5.8 mph 9.2 mph 83 % 0.00 in 0.0 W/m2 CLR
01:18 42.0 °F 37.2 °F 30.36 in NNE 6.3 mph 10.4 mph 83 % 0.00 in 0.0 W/m2 CLR
01:23 41.8 °F 37.0 °F 30.36 in NNE 6.6 mph 11.5 mph 83 % 0.00 in 0.0 W/m2 CLR
01:28 41.7 °F 36.9 °F 30.36 in NE 5.5 mph 11.5 mph 83 % 0.00 in 0.0 W/m2 CLR
01:33 41.5 °F 36.4 °F 30.36 in NNE 8.6 mph 11.5 mph 82 % 0.00 in 0.0 W/m2 CLR
01:38 41.4 °F 36.6 °F 30.36 in NE 3.5 mph 6.9 mph 83 % 0.00 in 0.0 W/m2 CLR
01:43 41.3 °F 36.5 °F 30.36 in NNE 8.5 mph 11.5 mph 83 % 0.00 in 0.0 W/m2 CLR
01:48 41.3 °F 36.5 °F 30.36 in NE 4.4 mph 9.2 mph 83 % 0.00 in 0.0 W/m2 CLR
01:53 41.2 °F 36.4 °F 30.36 in NE 8.2 mph 11.5 mph 83 % 0.00 in 0.0 W/m2 CLR
01:58 41.2 °F 36.4 °F 30.36 in NE 5.6 mph 10.4 mph 83 % 0.00 in 0.0 W/m2 CLR
02:03 41.1 °F 36.3 °F 30.36 in NE 6.1 mph 9.2 mph 83 % 0.00 in 0.0 W/m2 CLR
02:08 41.1 °F 36.3 °F 30.36 in NE 6.1 mph 9.0 mph 83 % 0.00 in 0.0 W/m2 CLR
02:13 41.1 °F 36.0 °F 30.36 in NE 7.0 mph 10.4 mph 82 % 0.00 in 0.0 W/m2 CLR
02:18 40.9 °F 35.8 °F 30.37 in NE 5.3 mph 8.1 mph 82 % 0.00 in 0.0 W/m2 CLR
02:23 40.9 °F 35.8 °F 30.37 in NE 3.1 mph 9.2 mph 82 % 0.00 in 0.0 W/m2 CLR
02:28 40.9 °F 35.8 °F 30.37 in NE 0.9 mph 3.5 mph 82 % 0.00 in 0.0 W/m2 CLR
02:33 40.9 °F 36.1 °F 30.37 in NE 0.9 mph 2.3 mph 83 % 0.00 in 0.0 W/m2 CLR
02:38 40.8 °F 36.0 °F 30.37 in NE 2.1 mph 4.0 mph 83 % 0.00 in 0.0 W/m2 CLR
02:43 40.8 °F 36.0 °F 30.37 in NNE 1.2 mph 3.5 mph 83 % 0.00 in 0.0 W/m2 CLR
02:48 40.8 °F 36.0 °F 30.37 in NNE 2.5 mph 4.0 mph 83 % 0.00 in 0.0 W/m2 CLR
02:53 40.8 °F 36.0 °F 30.37 in NNE 2.8 mph 4.6 mph 83 % 0.00 in 0.0 W/m2 CLR
02:58 40.8 °F 36.0 °F 30.37 in NNE 2.1 mph 5.8 mph 83 % 0.00 in 0.0 W/m2 CLR
03:04 40.7 °F 35.9 °F 30.37 in NE 2.2 mph 3.5 mph 83 % 0.00 in 0.0 W/m2 CLR
03:09 40.7 °F 35.9 °F 30.37 in NNE 4.0 mph 5.8 mph 83 % 0.00 in 0.0 W/m2 CLR
03:14 40.6 °F 35.8 °F 30.37 in NNE 5.1 mph 9.2 mph 83 % 0.00 in 0.0 W/m2 CLR
03:19 40.5 °F 35.7 °F 30.37 in NE 6.1 mph 10.4 mph 83 % 0.00 in 0.0 W/m2 CLR
03:24 40.4 °F 35.6 °F 30.37 in NE 4.2 mph 8.1 mph 83 % 0.00 in 0.0 W/m2 CLR
03:29 40.4 °F 35.6 °F 30.37 in NE 2.5 mph 4.6 mph 83 % 0.00 in 0.0 W/m2 CLR
03:34 40.3 °F 35.8 °F 30.37 in NNE 6.3 mph 10.4 mph 84 % 0.00 in 0.0 W/m2 CLR
03:35 40.3 °F 35.8 °F 30.37 in NNE 5.4 mph 10.4 mph 84 % 0.00 in 0.0 W/m2 CLR
03:40 40.2 °F 35.8 °F 30.37 in NE 4.2 mph 11.5 mph 84 % 0.00 in 0.0 W/m2 CLR
03:45 40.2 °F 35.8 °F 30.36 in NE 5.8 mph 9.0 mph 84 % 0.00 in 0.0 W/m2 CLR
03:49 40.1 °F 35.7 °F 30.36 in NE 4.5 mph 10.4 mph 84 % 0.00 in 0.0 W/m2 CLR
03:54 40.0 °F 35.6 °F 30.36 in NE 5.7 mph 9.2 mph 84 % 0.00 in 0.0 W/m2 CLR
03:59 40.0 °F 35.6 °F 30.37 in NNE 1.9 mph 5.8 mph 84 % 0.00 in 0.0 W/m2 CLR
04:04 39.9 °F 35.5 °F 30.37 in NNE 3.9 mph 9.2 mph 84 % 0.00 in 0.0 W/m2 CLR
04:09 39.9 °F 35.5 °F 30.36 in NE 4.5 mph 11.5 mph 84 % 0.00 in 0.0 W/m2 CLR
04:10 39.9 °F 35.5 °F 30.36 in NNE 4.1 mph 6.9 mph 84 % 0.00 in 0.0 W/m2 CLR
04:15 39.8 °F 35.4 °F 30.36 in NE 6.7 mph 6.7 mph 84 % 0.00 in 0.0 W/m2 CLR
04:20 39.8 °F 35.7 °F 30.36 in NE 4.1 mph 10.4 mph 85 % 0.00 in 0.0 W/m2 CLR
04:25 39.8 °F 35.7 °F 30.36 in NNE 3.6 mph 4.6 mph 85 % 0.00 in 0.0 W/m2 CLR
04:30 39.7 °F 35.6 °F 30.37 in NE 4.2 mph 5.8 mph 85 % 0.00 in 0.0 W/m2 CLR
04:33 39.7 °F 35.6 °F 30.37 in NNE 3.9 mph 4.6 mph 85 % 0.00 in 0.0 W/m2 CLR
04:38 39.6 °F 35.5 °F 30.36 in NE 7.0 mph 9.2 mph 85 % 0.00 in 0.0 W/m2 CLR
04:43 39.5 °F 35.4 °F 30.36 in NE 7.1 mph 10.4 mph 85 % 0.00 in 0.0 W/m2 CLR
04:48 39.5 °F 35.4 °F 30.37 in NE 5.8 mph 9.2 mph 85 % 0.00 in 0.0 W/m2 CLR
04:53 39.5 °F 35.4 °F 30.36 in NNE 6.2 mph 10.4 mph 85 % 0.00 in 0.0 W/m2 CLR
04:58 39.4 °F 35.3 °F 30.37 in NE 6.7 mph 9.2 mph 85 % 0.00 in 0.0 W/m2 CLR
05:03 39.4 °F 35.3 °F 30.37 in NE 6.8 mph 10.4 mph 85 % 0.00 in 0.0 W/m2 CLR
05:08 39.4 °F 35.3 °F 30.37 in NNE 6.3 mph 10.4 mph 85 % 0.00 in 0.0 W/m2 CLR
05:13 39.4 °F 35.6 °F 30.37 in NE 5.3 mph 5.8 mph 86 % 0.00 in 0.0 W/m2 CLR
05:18 39.4 °F 35.6 °F 30.37 in NE 3.3 mph 4.6 mph 86 % 0.00 in 0.0 W/m2 CLR
05:23 39.4 °F 35.6 °F 30.38 in NE 2.2 mph 9.2 mph 86 % 0.00 in 0.0 W/m2 CLR
05:28 39.4 °F 35.6 °F 30.38 in NNE 2.5 mph 3.5 mph 86 % 0.00 in 0.0 W/m2 CLR
05:33 39.4 °F 35.6 °F 30.38 in NE 4.0 mph 9.2 mph 86 % 0.00 in 0.0 W/m2 CLR
05:38 39.4 °F 35.6 °F 30.38 in ENE 3.5 mph 5.8 mph 86 % 0.00 in 0.0 W/m2 CLR
05:43 39.4 °F 35.6 °F 30.38 in Calm     86 % 0.00 in 0.0 W/m2 CLR
05:48 39.4 °F 35.6 °F 30.38 in NE 5.1 mph 10.0 mph 86 % 0.00 in 0.0 W/m2 CLR
05:50 39.4 °F 35.6 °F 30.38 in NE 3.0 mph 10.0 mph 86 % 0.00 in 0.0 W/m2 CLR
05:55 39.4 °F 35.6 °F 30.38 in NE 2.0 mph 6.0 mph 86 % 0.00 in 0.0 W/m2 CLR
06:00 39.4 °F 35.6 °F 30.38 in NNE 1.9 mph 4.0 mph 86 % 0.00 in 0.0 W/m2 CLR
06:05 39.4 °F 35.6 °F 30.37 in NE 2.0 mph 7.0 mph 86 % 0.00 in 0.0 W/m2 CLR
06:10 39.4 °F 35.3 °F 30.38 in NE 3.0 mph 6.0 mph 85 % 0.00 in 0.0 W/m2 CLR
06:15 39.4 °F 35.3 °F 30.37 in NNE 3.7 mph 5.0 mph 85 % 0.00 in 0.0 W/m2 CLR
06:20 39.4 °F 35.3 °F 30.38 in NE 3.0 mph 8.0 mph 85 % 0.00 in 0.0 W/m2 CLR
06:25 39.4 °F 35.3 °F 30.38 in NE 3.0 mph 6.0 mph 85 % 0.00 in 0.0 W/m2 OVC
06:30 39.4 °F 35.3 °F 30.38 in NE 2.1 mph 4.0 mph 85 % 0.00 in 0.0 W/m2 CLR
06:35 39.4 °F 35.3 °F 30.39 in NE 3.0 mph 7.0 mph 85 % 0.00 in 0.0 W/m2 OVC
06:40 39.3 °F 35.5 °F 30.39 in NNE 5.0 mph 8.0 mph 86 % 0.00 in 0.0 W/m2 OVC
06:45 39.3 °F 35.5 °F 30.39 in NE 5.1 mph 7.0 mph 86 % 0.00 in 0.0 W/m2 CLR
06:50 39.2 °F 35.4 °F 30.39 in NE 6.7 mph 8.1 mph 86 % 0.00 in 0.0 W/m2 CLR
06:55 39.1 °F 35.3 °F 30.39 in NNE 2.0 mph 9.2 mph 86 % 0.00 in 0.0 W/m2 CLR
07:00 39.0 °F 35.2 °F 30.39 in NE 4.1 mph 4.6 mph 86 % 0.00 in 0.0 W/m2 CLR
07:05 38.9 °F 35.1 °F 30.39 in ENE 1.5 mph 6.9 mph 86 % 0.00 in 0.0 W/m2 CLR
07:10 38.9 °F 35.1 °F 30.39 in NE 1.8 mph 3.5 mph 86 % 0.00 in 0.0 W/m2 CLR
07:15 38.8 °F 35.0 °F 30.39 in NE 0.5 mph 2.3 mph 86 % 0.00 in 7.0 W/m2 CLR
07:20 38.7 °F 34.9 °F 30.39 in NE 2.2 mph 4.6 mph 86 % 0.00 in 9.0 W/m2 CLR
07:25 38.7 °F 34.9 °F 30.40 in NE 0.1 mph 1.2 mph 86 % 0.00 in 12.0 W/m2 CLR
07:30 38.8 °F 35.3 °F 30.40 in Calm   1.2 mph 87 % 0.00 in 12.0 W/m2 CLR
07:35 38.8 °F 35.3 °F 30.40 in NE 1.2 mph 3.5 mph 87 % 0.00 in 16.0 W/m2 CLR
07:40 38.9 °F 35.4 °F 30.40 in East 1.0 mph 3.5 mph 87 % 0.00 in 18.0 W/m2 BKN
07:45 39.0 °F 35.2 °F 30.40 in ENE 1.8 mph 4.6 mph 86 % 0.00 in 21.0 W/m2 BKN
07:50 39.0 °F 35.2 °F 30.40 in East 4.0 mph 6.9 mph 86 % 0.00 in 25.0 W/m2 BKN
07:55 39.1 °F 35.3 °F 30.40 in East 3.4 mph 6.9 mph 86 % 0.00 in 26.0 W/m2 OVC
08:00 39.1 °F 35.0 °F 30.40 in NE 1.8 mph 6.9 mph 85 % 0.00 in 30.0 W/m2 OVC
08:05 39.1 °F 35.0 °F 30.40 in East 3.4 mph 5.8 mph 85 % 0.00 in 35.0 W/m2 BKN
08:10 39.1 °F 35.0 °F 30.40 in ENE 3.8 mph 5.8 mph 85 % 0.00 in 39.0 W/m2 BKN
08:15 39.2 °F 34.8 °F 30.40 in ENE 2.7 mph 9.2 mph 84 % 0.00 in 40.0 W/m2 OVC
08:20 39.2 °F 34.8 °F 30.40 in ENE 1.7 mph 3.5 mph 84 % 0.00 in 39.0 W/m2 OVC
08:25 39.2 °F 34.8 °F 30.40 in ENE 4.5 mph 6.9 mph 84 % 0.00 in 49.0 W/m2 OVC
08:30 39.3 °F 34.9 °F 30.40 in ENE 2.3 mph 5.0 mph 84 % 0.00 in 51.0 W/m2 OVC
08:35 39.2 °F 34.8 °F 30.40 in ESE 1.9 mph 6.9 mph 84 % 0.00 in 56.0 W/m2 OVC
08:40 39.2 °F 34.8 °F 30.40 in East 4.9 mph 8.1 mph 84 % 0.00 in 58.0 W/m2 OVC
08:45 39.2 °F 34.5 °F 30.40 in East 4.6 mph 8.1 mph 83 % 0.00 in 60.0 W/m2 OVC
08:46 39.2 °F 34.5 °F 30.40 in ENE 3.6 mph 6.9 mph 83 % 0.00 in 58.0 W/m2 OVC
08:51 39.2 °F 34.5 °F 30.41 in East 3.6 mph 6.9 mph 83 % 0.00 in 60.0 W/m2 OVC
08:56 39.3 °F 34.6 °F 30.41 in ENE 4.1 mph 6.9 mph 83 % 0.00 in 65.0 W/m2 OVC
09:01 39.4 °F 34.7 °F 30.41 in East 4.3 mph 8.1 mph 83 % 0.00 in 62.0 W/m2 OVC
09:06 39.5 °F 34.8 °F 30.41 in East 3.6 mph 6.9 mph 83 % 0.00 in 70.0 W/m2 OVC
09:11 39.5 °F 34.5 °F 30.41 in ENE 2.1 mph 5.8 mph 82 % 0.00 in 83.0 W/m2 OVC
09:16 39.6 °F 34.9 °F 30.41 in NE 4.1 mph 6.0 mph 83 % 0.00 in 91.0 W/m2 OVC
09:21 39.7 °F 34.7 °F 30.41 in NE 3.0 mph 3.5 mph 82 % 0.00 in 114.0 W/m2 BKN
09:26 39.8 °F 34.8 °F 30.41 in East 3.0 mph 5.8 mph 82 % 0.00 in 95.0 W/m2 OVC
09:31 39.8 °F 34.4 °F 30.41 in ENE 3.3 mph 9.2 mph 81 % 0.00 in 97.0 W/m2 OVC
09:36 40.0 °F 34.6 °F 30.42 in ENE 2.6 mph 4.6 mph 81 % 0.00 in 88.0 W/m2 OVC
09:38 40.0 °F 34.6 °F 30.41 in East 1.8 mph 3.5 mph 81 % 0.00 in 93.0 W/m2 OVC
09:43 40.1 °F 34.7 °F 30.42 in ESE 2.6 mph 4.0 mph 81 % 0.00 in 91.0 W/m2 OVC
09:48 40.0 °F 34.3 °F 30.42 in East 4.2 mph 6.9 mph 80 % 0.00 in 97.0 W/m2 OVC
09:53 40.0 °F 34.3 °F 30.42 in NNE 2.5 mph 5.8 mph 80 % 0.00 in 107.0 W/m2 OVC
09:58 40.2 °F 34.5 °F 30.42 in ENE 1.9 mph 5.8 mph 80 % 0.00 in 114.0 W/m2 OVC
10:03 40.2 °F 34.5 °F 30.42 in Calm   2.3 mph 80 % 0.00 in 113.0 W/m2 OVC
10:08 40.4 °F 34.7 °F 30.43 in ENE 1.0 mph 3.0 mph 80 % 0.00 in 84.0 W/m2 OVC
10:13 40.4 °F 34.7 °F 30.43 in ENE 1.7 mph 3.5 mph 80 % 0.00 in 127.0 W/m2 OVC
10:18 40.6 °F 34.9 °F 30.43 in NE 2.8 mph 3.5 mph 80 % 0.00 in 121.0 W/m2 OVC
10:23 40.5 °F 34.8 °F 30.43 in Calm     80 % 0.00 in 120.0 W/m2 OVC
10:24 40.5 °F 34.8 °F 30.43 in ENE 0.9 mph 3.5 mph 80 % 0.00 in 121.0 W/m2 OVC
10:29 40.7 °F 35.0 °F 30.43 in NE 0.8 mph 3.5 mph 80 % 0.00 in 114.0 W/m2 OVC
10:34 40.8 °F 35.1 °F 30.43 in ENE 3.0 mph 5.8 mph 80 % 0.00 in 120.0 W/m2 OVC
10:39 40.7 °F 35.0 °F 30.44 in East 3.4 mph 4.6 mph 80 % 0.00 in 114.0 W/m2 OVC
10:44 40.9 °F 35.2 °F 30.43 in East 1.9 mph 6.9 mph 80 % 0.00 in 123.0 W/m2 OVC
10:49 41.1 °F 35.1 °F 30.44 in ENE 1.3 mph 3.5 mph 79 % 0.00 in 118.0 W/m2 OVC
10:54 41.1 °F 35.1 °F 30.44 in NE 2.2 mph 3.5 mph 79 % 0.00 in 113.0 W/m2 OVC
10:59 41.2 °F 35.2 °F 30.44 in SE 1.3 mph 5.8 mph 79 % 0.00 in 105.0 W/m2 OVC
11:04 41.1 °F 35.1 °F 30.44 in SE 3.1 mph 8.1 mph 79 % 0.00 in 86.0 W/m2 OVC
11:09 41.1 °F 35.1 °F 30.44 in ESE 2.3 mph 6.9 mph 79 % 0.00 in 90.0 W/m2 OVC
11:14 41.2 °F 35.2 °F 30.44 in ESE 1.0 mph 3.5 mph 79 % 0.00 in 97.0 W/m2 OVC
11:19 41.1 °F 35.1 °F 30.44 in ENE 1.5 mph 3.5 mph 79 % 0.00 in 95.0 W/m2 OVC
11:24 41.1 °F 35.1 °F 30.44 in East 2.4 mph 3.5 mph 79 % 0.00 in 102.0 W/m2 OVC
11:29 41.0 °F 35.0 °F 30.44 in East 4.0 mph 7.0 mph 79 % 0.00 in 88.0 W/m2 OVC
11:34 40.9 °F 34.9 °F 30.44 in ESE 4.5 mph 6.9 mph 79 % 0.00 in 95.0 W/m2 OVC
11:39 41.0 °F 35.0 °F 30.44 in ESE 0.6 mph 2.3 mph 79 % 0.00 in 97.0 W/m2 OVC
11:44 41.0 °F 35.0 °F 30.43 in East 2.6 mph 6.0 mph 79 % 0.00 in 107.0 W/m2 OVC
11:49 41.0 °F 35.0 °F 30.44 in East 2.8 mph 6.0 mph 79 % 0.00 in 120.0 W/m2 OVC
11:54 41.1 °F 35.1 °F 30.43 in East 3.8 mph 5.8 mph 79 % 0.00 in 125.0 W/m2 OVC
11:59 41.1 °F 35.1 °F 30.43 in East 5.1 mph 8.1 mph 79 % 0.00 in 132.0 W/m2 OVC
12:04 41.1 °F 35.1 °F 30.43 in ESE 4.0 mph 9.2 mph 79 % 0.00 in 139.0 W/m2 OVC
12:09 41.2 °F 35.2 °F 30.43 in ESE 3.7 mph 8.1 mph 79 % 0.00 in 137.0 W/m2 OVC
12:14 41.3 °F 35.0 °F 30.43 in East 2.3 mph 3.5 mph 78 % 0.00 in 130.0 W/m2 OVC
12:19 41.3 °F 35.0 °F 30.43 in East 3.6 mph 5.8 mph 78 % 0.00 in 139.0 W/m2 OVC
12:29 41.3 °F 35.0 °F 30.43 in ESE 2.8 mph 5.8 mph 78 % 0.00 in 134.0 W/m2 OVC
12:34 41.3 °F 35.0 °F 30.43 in ESE 2.9 mph 6.9 mph 78 % 0.00 in 149.0 W/m2 OVC
12:39 41.4 °F 35.1 °F 30.42 in ENE 2.0 mph 4.0 mph 78 % 0.00 in 183.0 W/m2 OVC
12:44 41.5 °F 35.5 °F 30.42 in East 3.9 mph 8.1 mph 79 % 0.00 in 171.0 W/m2 OVC
12:49 41.5 °F 35.2 °F 30.42 in NE 1.7 mph 6.9 mph 78 % 0.00 in 148.0 W/m2 OVC
12:54 41.7 °F 35.7 °F 30.42 in East 3.5 mph 6.0 mph 79 % 0.00 in 144.0 W/m2 OVC
12:59 41.6 °F 35.2 °F 30.42 in ENE 4.2 mph 8.0 mph 78 % 0.00 in 130.0 W/m2 OVC
13:04 41.7 °F 35.3 °F 30.42 in ESE 1.3 mph 2.3 mph 78 % 0.00 in 144.0 W/m2 OVC
13:09 41.5 °F 35.2 °F 30.42 in East 3.8 mph 6.9 mph 78 % 0.00 in 160.0 W/m2 OVC
13:14 41.4 °F 35.4 °F 30.42 in ENE 2.1 mph 4.6 mph 79 % 0.00 in 148.0 W/m2 OVC
13:19 41.5 °F 35.5 °F 30.41 in East 1.9 mph 3.5 mph 79 % 0.00 in 151.0 W/m2 OVC
13:24 41.4 °F 35.4 °F 30.41 in ESE 2.2 mph 4.0 mph 79 % 0.00 in 120.0 W/m2 OVC
13:29 41.3 °F 35.6 °F 30.41 in ESE 1.8 mph 5.8 mph 80 % 0.00 in 95.0 W/m2 OVC
13:34 41.2 °F 35.5 °F 30.41 in ESE 0.4 mph 3.5 mph 80 % 0.00 in 141.0 W/m2 OVC
13:39 41.2 °F 35.5 °F 30.40 in ESE 0.5 mph   80 % 0.00 in 127.0 W/m2 OVC
13:44 41.3 °F 35.6 °F 30.40 in East 1.1 mph 5.8 mph 80 % 0.00 in 171.0 W/m2 OVC
13:49 41.5 °F 35.8 °F 30.40 in Calm     80 % 0.00 in 107.0 W/m2 OVC
13:54 41.5 °F 35.8 °F 30.40 in ENE 1.2 mph 4.6 mph 80 % 0.00 in 88.0 W/m2 OVC
13:59 41.2 °F 35.5 °F 30.40 in East 3.2 mph 5.8 mph 80 % 0.00 in 116.0 W/m2 OVC
14:04 41.0 °F 35.6 °F 30.40 in ESE 1.1 mph 6.0 mph 81 % 0.00 in 125.0 W/m2 OVC
14:09 41.0 °F 35.6 °F 30.40 in ESE 3.3 mph 4.0 mph 81 % 0.00 in 132.0 W/m2 OVC
14:14 40.9 °F 35.5 °F 30.39 in East 1.6 mph 3.5 mph 81 % 0.00 in 105.0 W/m2 OVC
14:19 40.9 °F 35.8 °F 30.39 in ENE 2.1 mph 5.8 mph 82 % 0.00 in 88.0 W/m2 OVC
14:24 40.8 °F 35.7 °F 30.39 in East 1.6 mph 3.5 mph 82 % 0.00 in 107.0 W/m2 OVC
14:29 40.8 °F 35.7 °F 30.39 in ENE 3.3 mph 4.6 mph 82 % 0.00 in 104.0 W/m2 OVC
14:34 41.1 °F 36.3 °F 30.39 in ESE 0.5 mph 3.0 mph 83 % 0.00 in 111.0 W/m2 OVC
14:39 40.8 °F 35.7 °F 30.39 in ENE 3.1 mph 8.1 mph 82 % 0.00 in 114.0 W/m2 OVC
14:44 40.6 °F 35.8 °F 30.39 in SE 3.5 mph 9.2 mph 83 % 0.00 in 83.0 W/m2 OVC
14:49 40.6 °F 35.8 °F 30.39 in ESE 0.6 mph 5.8 mph 83 % 0.00 in 125.0 W/m2 OVC
14:54 40.8 °F 36.0 °F 30.38 in SE 1.6 mph 4.0 mph 83 % 0.00 in 109.0 W/m2 OVC
14:59 40.7 °F 35.9 °F 30.38 in Calm   3.5 mph 83 % 0.00 in 90.0 W/m2 OVC
15:04 40.9 °F 36.1 °F 30.38 in ESE 0.7 mph 3.5 mph 83 % 0.00 in 97.0 W/m2 OVC
15:09 40.8 °F 36.0 °F 30.38 in ESE 3.7 mph 3.7 mph 83 % 0.00 in 86.0 W/m2 OVC
15:14 40.8 °F 36.3 °F 30.38 in ESE 2.3 mph 4.6 mph 84 % 0.00 in 91.0 W/m2 OVC
15:15 40.8 °F 36.0 °F 30.38 in East 2.4 mph 3.5 mph 83 % 0.00 in 113.0 W/m2 OVC
15:20 40.8 °F 36.0 °F 30.38 in ENE 2.5 mph 5.8 mph 83 % 0.00 in 104.0 W/m2 OVC
15:25 40.8 °F 36.3 °F 30.37 in East 1.5 mph 3.5 mph 84 % 0.00 in 93.0 W/m2 OVC
15:30 40.8 °F 36.3 °F 30.37 in East 2.5 mph 5.8 mph 84 % 0.00 in 86.0 W/m2 OVC
15:35 40.7 °F 36.2 °F 30.37 in SE 3.0 mph 5.8 mph 84 % 0.00 in 74.0 W/m2 OVC
15:40 40.7 °F 36.2 °F 30.37 in East 3.2 mph 5.8 mph 84 % 0.00 in 86.0 W/m2 OVC
15:45 40.7 °F 36.2 °F 30.37 in NE 3.2 mph 5.8 mph 84 % 0.00 in 90.0 W/m2 OVC
15:50 40.7 °F 36.5 °F 30.37 in Calm   3.5 mph 85 % 0.00 in 113.0 W/m2 OVC
15:55 40.8 °F 36.6 °F 30.36 in ENE 1.9 mph 3.5 mph 85 % 0.00 in 67.0 W/m2 OVC
16:00 40.7 °F 36.5 °F 30.36 in ENE 4.0 mph 4.6 mph 85 % 0.00 in 62.0 W/m2 OVC
16:01 40.6 °F 36.4 °F 30.36 in East 4.1 mph 8.1 mph 85 % 0.00 in 62.0 W/m2 OVC
16:06 40.4 °F 36.2 °F 30.36 in NE 2.6 mph 4.0 mph 85 % 0.00 in 67.0 W/m2 OVC
16:11 40.3 °F 36.1 °F 30.37 in East 2.7 mph 5.8 mph 85 % 0.00 in 51.0 W/m2 OVC
16:16 40.4 °F 36.5 °F 30.36 in ENE 3.1 mph 3.5 mph 86 % 0.00 in 47.0 W/m2 OVC
16:21 40.4 °F 36.5 °F 30.36 in ENE 2.8 mph 6.0 mph 86 % 0.00 in 40.0 W/m2 OVC
16:26 40.3 °F 36.4 °F 30.36 in ENE 3.5 mph 4.0 mph 86 % 0.00 in 53.0 W/m2 OVC
16:31 40.2 °F 36.3 °F 30.36 in East 1.1 mph 5.8 mph 86 % 0.00 in 54.0 W/m2 OVC
16:36 40.2 °F 36.6 °F 30.36 in East 0.2 mph 2.3 mph 87 % 0.00 in 49.0 W/m2 OVC
16:41 40.2 °F 36.6 °F 30.36 in ENE 3.1 mph 3.5 mph 87 % 0.00 in 46.0 W/m2 OVC
16:46 40.2 °F 36.6 °F 30.35 in East 1.5 mph 3.5 mph 87 % 0.00 in 44.0 W/m2 OVC
16:51 40.2 °F 36.6 °F 30.35 in ESE 2.6 mph 4.6 mph 87 % 0.00 in 46.0 W/m2 OVC
16:56 40.2 °F 36.6 °F 30.35 in East 1.3 mph 3.5 mph 87 % 0.00 in 53.0 W/m2 OVC
17:01 40.2 °F 36.6 °F 30.36 in SE 3.5 mph 6.9 mph 87 % 0.00 in 44.0 W/m2 OVC
17:06 40.1 °F 36.5 °F 30.35 in East 2.9 mph 7.0 mph 87 % 0.00 in 44.0 W/m2 OVC
17:11 40.1 °F 36.8 °F 30.35 in East 4.5 mph 8.1 mph 88 % 0.00 in 51.0 W/m2 OVC
17:16 40.0 °F 36.7 °F 30.35 in ENE 4.2 mph 6.0 mph 88 % 0.00 in 53.0 W/m2 OVC
17:21 40.0 °F 36.7 °F 30.35 in East 2.9 mph 7.0 mph 88 % 0.00 in 42.0 W/m2 OVC
17:26 39.9 °F 36.6 °F 30.35 in ESE 1.3 mph 3.5 mph 88 % 0.00 in 35.0 W/m2 OVC
17:32 40.0 °F 36.7 °F 30.34 in ENE 3.0 mph 3.5 mph 88 % 0.00 in 40.0 W/m2 OVC
17:37 39.9 °F 36.6 °F 30.35 in Calm   2.3 mph 88 % 0.00 in 32.0 W/m2 OVC
17:42 39.9 °F 36.9 °F 30.34 in Calm     89 % 0.00 in 28.0 W/m2 OVC
17:47 39.8 °F 36.8 °F 30.34 in East 0.9 mph 3.5 mph 89 % 0.00 in 28.0 W/m2 OVC
17:52 39.7 °F 36.7 °F 30.34 in East 3.5 mph 5.8 mph 89 % 0.00 in 25.0 W/m2 OVC
17:57 39.6 °F 36.6 °F 30.34 in East 3.8 mph 5.8 mph 89 % 0.00 in 28.0 W/m2 OVC
18:02 39.5 °F 36.5 °F 30.33 in East 4.0 mph 8.1 mph 89 % 0.00 in 18.0 W/m2 OVC
18:07 39.5 °F 36.5 °F 30.33 in East 2.8 mph 5.8 mph 89 % 0.00 in 16.0 W/m2 OVC
18:12 39.4 °F 36.7 °F 30.34 in ENE 1.9 mph 3.5 mph 90 % 0.00 in 11.0 W/m2 OVC
18:17 39.5 °F 36.8 °F 30.34 in ENE 3.6 mph 6.9 mph 90 % 0.00 in 9.0 W/m2 OVC
18:22 39.3 °F 36.6 °F 30.34 in East 1.7 mph 3.5 mph 90 % 0.00 in 7.0 W/m2 OVC
18:27 39.3 °F 36.6 °F 30.34 in ENE 0.9 mph 3.5 mph 90 % 0.00 in 7.0 W/m2 OVC
18:32 39.3 °F 36.6 °F 30.34 in NE 0.2 mph 2.3 mph 90 % 0.00 in 7.0 W/m2 OVC
18:37 39.3 °F 36.6 °F 30.34 in Calm     90 % 0.00 in 9.0 W/m2 OVC
18:42 39.3 °F 36.6 °F 30.34 in ESE 1.0 mph 3.5 mph 90 % 0.00 in 9.0 W/m2 OVC
18:47 39.2 °F 36.5 °F 30.33 in ESE 1.6 mph 3.5 mph 90 % 0.00 in 11.0 W/m2 OVC
18:52 39.2 °F 36.8 °F 30.33 in ENE 1.2 mph 3.5 mph 91 % 0.00 in 9.0 W/m2 OVC
18:57 39.1 °F 36.7 °F 30.33 in ENE 0.6 mph 3.5 mph 91 % 0.00 in 7.0 W/m2 OVC
19:02 39.1 °F 36.7 °F 30.34 in East 2.6 mph 3.5 mph 91 % 0.00 in 5.0 W/m2 OVC
19:07 39.1 °F 36.7 °F 30.34 in East 1.1 mph 3.5 mph 91 % 0.00 in 0.0 W/m2 OVC
19:12 39.1 °F 36.7 °F 30.34 in Calm     91 % 0.00 in 0.0 W/m2 OVC
19:17 39.1 °F 36.7 °F 30.33 in Calm     91 % 0.00 in 0.0 W/m2 CLR
19:22 39.0 °F 36.6 °F 30.33 in East 2.8 mph 6.9 mph 91 % 0.00 in 0.0 W/m2 CLR
19:27 38.9 °F 36.5 °F 30.33 in East 0.2 mph 2.3 mph 91 % 0.00 in 0.0 W/m2 CLR
19:32 39.0 °F 36.6 °F 30.33 in East 1.7 mph 3.5 mph 91 % 0.00 in 0.0 W/m2 CLR
19:37 38.9 °F 36.5 °F 30.33 in ENE 0.9 mph 4.6 mph 91 % 0.00 in 0.0 W/m2 CLR
19:42 38.9 °F 36.5 °F 30.33 in ENE 2.8 mph 3.5 mph 91 % 0.00 in 0.0 W/m2 CLR
19:47 38.9 °F 36.5 °F 30.33 in East 1.5 mph 4.0 mph 91 % 0.00 in 0.0 W/m2 CLR
19:52 38.8 °F 36.4 °F 30.32 in ENE 1.4 mph 3.5 mph 91 % 0.00 in 0.0 W/m2 CLR
19:57 38.8 °F 36.4 °F 30.33 in Calm     91 % 0.00 in 0.0 W/m2 CLR
20:02 38.8 °F 36.7 °F 30.32 in East 2.9 mph 3.5 mph 92 % 0.00 in 0.0 W/m2 CLR
20:07 38.8 °F 36.7 °F 30.32 in ENE 3.4 mph 3.5 mph 92 % 0.00 in 0.0 W/m2 CLR
20:12 38.8 °F 36.7 °F 30.32 in East 2.9 mph 5.8 mph 92 % 0.00 in 0.0 W/m2 CLR
20:17 38.7 °F 36.6 °F 30.32 in East 3.6 mph 6.9 mph 92 % 0.00 in 0.0 W/m2 CLR
20:22 38.7 °F 36.6 °F 30.32 in ENE 3.0 mph 7.0 mph 92 % 0.00 in 0.0 W/m2 CLR
20:27 38.6 °F 36.5 °F 30.32 in NE 1.7 mph 4.0 mph 92 % 0.00 in 0.0 W/m2 CLR
20:32 38.6 °F 36.5 °F 30.32 in East 2.7 mph 6.9 mph 92 % 0.00 in 0.0 W/m2 CLR
20:37 38.6 °F 36.5 °F 30.32 in ENE 3.8 mph 6.9 mph 92 % 0.00 in 0.0 W/m2 CLR
20:42 38.5 °F 36.4 °F 30.32 in ESE 2.5 mph 7.0 mph 92 % 0.00 in 0.0 W/m2 CLR
20:45 38.6 °F 36.5 °F 30.32 in East 3.1 mph 4.0 mph 92 % 0.00 in 0.0 W/m2 CLR
20:50 38.6 °F 36.5 °F 30.32 in ESE 2.0 mph 3.5 mph 92 % 0.00 in 0.0 W/m2 CLR
20:55 38.6 °F 36.5 °F 30.32 in East 3.2 mph 4.6 mph 92 % 0.00 in 0.0 W/m2 CLR
21:00 38.6 °F 36.5 °F 30.32 in Calm     92 % 0.00 in 0.0 W/m2 CLR
21:05 38.6 °F 36.5 °F 30.32 in Calm     92 % 0.00 in 0.0 W/m2 CLR
21:10 38.6 °F 36.5 °F 30.33 in East 2.9 mph 3.5 mph 92 % 0.00 in 0.0 W/m2 CLR
21:15 38.7 °F 36.6 °F 30.33 in East 1.4 mph 3.0 mph 92 % 0.00 in 0.0 W/m2 CLR
21:20 38.6 °F 36.5 °F 30.33 in Calm     92 % 0.00 in 0.0 W/m2 CLR
21:25 38.7 °F 36.6 °F 30.33 in Calm     92 % 0.00 in 0.0 W/m2 CLR
21:26 38.7 °F 36.6 °F 30.33 in Calm     92 % 0.00 in 0.0 W/m2 CLR
21:31 38.6 °F 36.5 °F 30.34 in ENE 1.1 mph 3.5 mph 92 % 0.00 in 0.0 W/m2 CLR
21:36 38.6 °F 36.5 °F 30.34 in NE 0.3 mph   92 % 0.00 in 0.0 W/m2 CLR
21:42 38.6 °F 36.8 °F 30.33 in Calm   1.0 mph 93 % 0.00 in 0.0 W/m2 CLR
21:47 38.6 °F 36.8 °F 30.33 in Calm     93 % 0.00 in 0.0 W/m2 CLR
21:52 38.6 °F 36.8 °F 30.33 in Calm     93 % 0.00 in 0.0 W/m2 CLR
21:57 38.5 °F 36.4 °F 30.33 in East 1.2 mph 3.5 mph 92 % 0.00 in 0.0 W/m2 CLR
22:02 38.5 °F 36.7 °F 30.33 in ENE 0.7 mph 2.3 mph 93 % 0.00 in 0.0 W/m2 CLR
22:07 38.5 °F 36.7 °F 30.33 in Calm     93 % 0.00 in 0.0 W/m2 CLR
22:12 38.4 °F 36.6 °F 30.34 in East 1.0 mph 2.3 mph 93 % 0.00 in 0.0 W/m2 CLR
22:17 38.4 °F 36.6 °F 30.34 in Calm     93 % 0.00 in 0.0 W/m2 CLR
22:22 38.5 °F 36.7 °F 30.33 in ENE 1.1 mph 3.5 mph 93 % 0.00 in 0.0 W/m2 CLR
22:27 38.5 °F 36.7 °F 30.32 in Calm     93 % 0.00 in 0.0 W/m2 CLR
22:32 38.4 °F 36.6 °F 30.32 in ENE 0.4 mph 2.0 mph 93 % 0.00 in 0.0 W/m2 CLR
22:37 38.5 °F 36.7 °F 30.32 in East 0.1 mph 2.0 mph 93 % 0.00 in 0.0 W/m2 CLR
22:42 38.4 °F 36.6 °F 30.32 in Calm     93 % 0.00 in 0.0 W/m2 CLR
22:47 38.4 °F 36.6 °F 30.32 in Calm     93 % 0.00 in 0.0 W/m2 CLR
22:52 38.3 °F 36.5 °F 30.32 in Calm     93 % 0.00 in 0.0 W/m2 CLR
22:57 38.4 °F 36.6 °F 30.32 in Calm     93 % 0.00 in 0.0 W/m2 CLR
23:02 38.4 °F 36.8 °F 30.31 in Calm   3.5 mph 94 % 0.00 in 0.0 W/m2 CLR
23:07 38.4 °F 36.8 °F 30.31 in Calm   2.3 mph 94 % 0.00 in 0.0 W/m2 CLR
23:12 38.4 °F 36.6 °F 30.31 in ENE 1.2 mph 3.5 mph 93 % 0.00 in 0.0 W/m2 CLR
23:17 38.4 °F 36.8 °F 30.31 in East 0.3 mph 3.5 mph 94 % 0.00 in 0.0 W/m2 CLR
23:22 38.4 °F 36.6 °F 30.31 in Calm   2.3 mph 93 % 0.00 in 0.0 W/m2 CLR
23:27 38.4 °F 36.8 °F 30.30 in Calm   1.0 mph 94 % 0.01 in 0.0 W/m2 RA
23:32 38.4 °F 36.6 °F 30.30 in Calm   2.3 mph 93 % 0.01 in 0.0 W/m2 RA
23:37 38.4 °F 36.8 °F 30.30 in Calm   2.3 mph 94 % 0.01 in 0.0 W/m2
23:42 38.4 °F 36.8 °F 30.30 in NE 0.3 mph 2.3 mph 94 % 0.01 in 0.0 W/m2 CLR
23:47 38.5 °F 36.9 °F 30.29 in NE 0.2 mph 2.0 mph 94 % 0.01 in 0.0 W/m2 CLR
23:52 38.4 °F 36.8 °F 30.28 in East 0.4 mph 2.3 mph 94 % 0.01 in 0.0 W/m2 CLR
23:57 38.5 °F 36.9 °F 30.28 in NE 0.9 mph 3.5 mph 94 % 0.01 in 0.0 W/m2 CLR
Air Products Campus Weather
Compliments of Weather Underground - 3.5 mb